Pagrindinis puslapis
METAR-TAF:

METAR-TAF

Oro uostai :

Lanai City, Havajai, Jungtinės Amerikos Valstijos

platuma: 20-47N, ilguma: 156-57W, Aukštis: 399 m

Dabartinis oras

Ataskaita buvo paskelbta 18 minutes, ne 02:13 UTC
Vėjas 13 kt iš Vakarų su gūsio iki 18 kt
Temperatūra 23°C
Drėgmė 83%
Slėgis 1020 hPa
Matomumas: 16.1 km

METAR: PHNY 240213Z AUTO 28013G18KT 10SM 23/20 A3012 RMK AO2 $

Laikas: 16:31 (02:31 UTC)

Prognozė

Ataskaita buvo paskelbta 2 valandos ir 54 minutes, ne 23:37 UTC
Prognozė galioja nuo 24 metu 00 UTC su 24 metu 24 UTC
Vėjas 11 kt iš Vakarų/Šiaurės Vakarų
Matomumas: 10 km
Su prošvaistėmis ne aukštis 1500 ft
Nuo 24 metu 0500 UTC
Vėjas 5 kt nuo kintamojo kryptimis
Matomumas: 10 km
Mažai debesys ne aukštis 3000 ft
Išsisklaidę debesys ne aukštis 4000 ft
Nuo 24 metu 2100 UTC
Vėjas 10 kt iš Šiaurės/Šiaurės Rytų
Matomumas: 10 km
Mažai debesys ne aukštis 3000 ft
Su prošvaistėmis ne aukštis 4000 ft

TAF: PHNY 232337Z 2400/2424 30011KT P6SM BKN015 FM240500 VRB05KT P6SM FEW030 SCT040 FM242100 03010KT P6SM FEW030 BKN040

Orai ataskaitas ir orų prognozės (METAR, TAF).

turimą stotys yra geltonos ir raudonos taškus žemėlapyje.

Perkelti pele per norėdami pamatyti stoties vardą.

Tada spustelėkite, norėdami matyti oro stebėjimo ir prognozės.

Norėdami pakeisti žemėlapį: spustelėkite ant žalios mygtukų su juodo kryžiaus žemyn,; žalią mygtuką su brūkšneliu, jei norite nutolinti; arba žalių rodyklių gretimoms žemėlapius.


METAR-TAF: